Time;durP1;ratioP1;P1;durP2;ratioP2;P2;SDS_P1;SDS_P2;PMS_P1;PMS_P2;Temp;Humidity;BMP_temperature;BMP_pressure;BME280_temperature;BME280_humidity;BME280_pressure;Samples;Min_cycle;Max_cycle;Signal;HPM_P1;HPM_P2
2021/01/23 00:01:00;;;;;;;11.23;1.73;;;12.00;96.70;;;;;;5071840;28;20377;-72
2021/01/23 00:03:28;;;;;;;9.98;2.13;;;12.00;96.70;;;;;;5069114;28;20147;-72
2021/01/23 00:05:55;;;;;;;9.23;1.80;;;12.00;96.70;;;;;;5067480;28;20036;-72
2021/01/23 00:08:23;;;;;;;12.55;2.10;;;12.00;96.70;;;;;;5062582;28;20610;-72
2021/01/23 00:10:51;;;;;;;9.73;2.03;;;12.00;96.70;;;;;;5073782;28;20122;-72
2021/01/23 00:13:18;;;;;;;10.68;1.60;;;12.00;96.70;;;;;;5066292;28;20083;-72
2021/01/23 00:15:46;;;;;;;13.63;2.00;;;11.90;96.70;;;;;;5070488;28;20067;-72
2021/01/23 00:18:13;;;;;;;7.70;1.60;;;11.90;96.70;;;;;;5071343;28;20395;-72
2021/01/23 00:20:40;;;;;;;11.13;1.63;;;12.00;96.70;;;;;;5066382;28;20047;-72
2021/01/23 00:23:07;;;;;;;11.27;2.22;;;12.00;96.70;;;;;;5067161;28;20571;-72
2021/01/23 00:25:35;;;;;;;8.05;1.52;;;12.00;96.70;;;;;;5066501;28;20032;-72
2021/01/23 00:28:04;;;;;;;6.95;1.20;;;12.00;96.70;;;;;;5067217;28;20514;-72
2021/01/23 00:30:31;;;;;;;7.35;1.48;;;11.90;96.70;;;;;;5066597;28;20109;-72
2021/01/23 00:32:59;;;;;;;10.80;2.30;;;11.90;96.70;;;;;;5069664;28;20449;-72
2021/01/23 00:35:26;;;;;;;5.85;1.40;;;11.60;96.70;;;;;;5058803;28;20043;-72
2021/01/23 00:37:53;;;;;;;5.97;1.45;;;11.40;96.70;;;;;;5069025;28;20044;-72
2021/01/23 00:40:21;;;;;;;6.43;1.27;;;11.30;96.70;;;;;;5067450;28;20048;-72
2021/01/23 00:42:48;;;;;;;5.85;0.90;;;11.00;96.70;;;;;;5066694;28;20505;-72
2021/01/23 00:45:17;;;;;;;7.00;0.80;;;11.00;96.70;;;;;;5071611;28;20048;-72
2021/01/23 00:47:44;;;;;;;6.78;1.05;;;10.90;96.70;;;;;;5070661;28;20082;-72
2021/01/23 00:50:12;;;;;;;4.60;0.70;;;10.80;96.70;;;;;;5074902;28;20417;-72
2021/01/23 00:52:41;;;;;;;6.00;0.82;;;10.70;96.70;;;;;;5067623;28;20041;-72
2021/01/23 00:55:09;;;;;;;5.43;0.88;;;10.60;96.70;;;;;;5053148;28;20510;-72
2021/01/23 00:57:39;;;;;;;4.00;0.55;;;10.50;96.70;;;;;;5066286;28;20040;-72
2021/01/23 01:00:11;;;;;;;3.03;0.30;;;10.50;96.70;;;;;;5075211;28;20834;-72
2021/01/23 01:02:43;;;;;;;3.83;0.20;;;10.50;96.70;;;;;;5066396;28;20784;-72
2021/01/23 01:05:21;;;;;;;3.33;0.85;;;10.50;96.70;;;;;;5070402;28;20811;-72
2021/01/23 01:07:49;;;;;;;3.47;0.52;;;10.50;96.70;;;;;;5069341;28;20710;-72
2021/01/23 01:10:16;;;;;;;1.85;0.77;;;10.50;96.70;;;;;;5070842;28;20044;-72
2021/01/23 01:12:43;;;;;;;3.38;0.45;;;10.50;96.70;;;;;;5065735;28;20102;-72
2021/01/23 01:15:11;;;;;;;1.63;0.20;;;10.50;96.70;;;;;;5071194;28;20043;-72
2021/01/23 01:17:40;;;;;;;2.10;0.25;;;10.60;96.70;;;;;;5073312;28;20032;-73
2021/01/23 01:20:10;;;;;;;1.65;0.52;;;10.60;96.70;;;;;;5068080;28;20371;-72
2021/01/23 01:22:38;;;;;;;1.48;0.22;;;10.60;96.70;;;;;;5068397;28;21265;-72
2021/01/23 01:25:06;;;;;;;1.50;0.28;;;10.60;96.70;;;;;;5073728;28;20044;-72
2021/01/23 01:27:34;;;;;;;1.42;0.22;;;10.60;96.70;;;;;;5073101;28;20048;-72
2021/01/23 01:30:01;;;;;;;1.58;0.30;;;10.60;96.70;;;;;;5071851;28;20028;-72
2021/01/23 01:32:30;;;;;;;5.53;0.50;;;10.60;96.70;;;;;;5075488;28;20094;-72
2021/01/23 01:34:58;;;;;;;5.00;0.52;;;10.60;96.70;;;;;;5058071;28;20375;-72
2021/01/23 01:37:26;;;;;;;6.10;0.60;;;10.60;96.70;;;;;;5078996;28;20477;-72
2021/01/23 01:39:53;;;;;;;4.18;1.13;;;10.60;96.70;;;;;;5068603;28;20534;-72
2021/01/23 01:42:20;;;;;;;7.55;1.48;;;10.60;96.70;;;;;;5075236;28;20158;-72
2021/01/23 01:44:48;;;;;;;7.57;1.60;;;10.50;96.70;;;;;;5056795;28;20068;-73
2021/01/23 01:47:17;;;;;;;10.82;2.53;;;10.60;96.70;;;;;;5071626;28;20055;-72
2021/01/23 01:49:45;;;;;;;13.55;2.08;;;10.50;96.70;;;;;;5077870;28;20064;-72
2021/01/23 01:52:13;;;;;;;12.95;2.88;;;10.50;96.70;;;;;;5070376;28;20040;-72
2021/01/23 01:54:42;;;;;;;13.02;2.40;;;10.50;96.70;;;;;;5067978;28;20304;-72
2021/01/23 01:57:09;;;;;;;12.07;3.00;;;10.50;96.70;;;;;;5068237;28;20039;-73
2021/01/23 01:59:36;;;;;;;11.50;1.92;;;10.50;96.70;;;;;;5071608;28;20094;-73
2021/01/23 02:02:19;;;;;;;12.02;2.70;;;10.60;96.70;;;;;;5075992;28;20550;-72
2021/01/23 02:04:56;;;;;;;10.15;1.95;;;10.50;96.70;;;;;;5072025;28;20044;-72
2021/01/23 02:07:36;;;;;;;12.63;2.30;;;10.50;96.70;;;;;;5081020;28;20131;-72
2021/01/23 02:10:14;;;;;;;13.25;2.45;;;10.50;96.70;;;;;;5070825;28;20044;-72
2021/01/23 02:12:59;;;;;;;24.73;3.70;;;10.50;96.70;;;;;;5071500;28;20473;-72
2021/01/23 02:15:31;;;;;;;14.07;2.25;;;10.40;96.70;;;;;;5074434;28;20044;-72
2021/01/23 02:18:03;;;;;;;13.55;2.70;;;10.30;96.70;;;;;;5072063;28;20037;-72
2021/01/23 02:20:45;;;;;;;15.93;3.17;;;10.30;96.70;;;;;;5074021;28;21077;-73
2021/01/23 02:23:16;;;;;;;10.85;2.38;;;10.20;96.70;;;;;;5072649;28;20032;-72
2021/01/23 02:26:02;;;;;;;20.95;3.60;;;10.10;96.70;;;;;;5058599;28;20445;-72
2021/01/23 02:28:45;;;;;;;13.75;2.88;;;10.10;96.70;;;;;;5073035;28;20455;-73
2021/01/23 02:31:15;;;;;;;12.77;2.60;;;10.10;96.70;;;;;;5075287;28;20047;-72
2021/01/23 02:33:44;;;;;;;11.77;2.17;;;10.00;96.70;;;;;;5069508;28;20043;-72
2021/01/23 02:36:13;;;;;;;11.35;1.92;;;10.00;96.70;;;;;;5073754;28;20050;-72
2021/01/23 02:38:41;;;;;;;9.48;1.65;;;10.00;96.70;;;;;;5073307;28;20402;-72
2021/01/23 02:41:10;;;;;;;12.52;2.72;;;10.00;96.70;;;;;;5067362;28;20296;-72
2021/01/23 02:43:41;;;;;;;15.98;2.63;;;9.90;96.70;;;;;;5071550;28;20040;-72
2021/01/23 02:46:09;;;;;;;20.48;3.67;;;9.80;96.70;;;;;;5077753;28;20394;-72
2021/01/23 02:48:38;;;;;;;18.13;2.67;;;9.70;96.70;;;;;;5075355;28;20043;-72
2021/01/23 02:51:11;;;;;;;14.88;2.67;;;9.60;96.70;;;;;;5066149;28;20047;-72
2021/01/23 02:53:39;;;;;;;12.05;1.88;;;9.50;96.70;;;;;;5067557;28;20528;-72
2021/01/23 02:56:10;;;;;;;12.50;2.72;;;9.40;96.70;;;;;;5068879;28;20036;-72
2021/01/23 02:58:41;;;;;;;6.40;1.65;;;9.30;96.70;;;;;;5065836;28;20788;-73
2021/01/23 03:01:09;;;;;;;7.75;1.08;;;9.30;96.70;;;;;;5083589;28;20597;-72
2021/01/23 03:03:39;;;;;;;3.40;0.93;;;9.10;96.70;;;;;;5075819;28;20044;-72
2021/01/23 03:06:07;;;;;;;5.57;0.60;;;9.00;96.70;;;;;;5069753;28;20048;-72
2021/01/23 03:08:34;;;;;;;5.32;0.55;;;8.90;96.70;;;;;;5069379;28;21150;-72
2021/01/23 03:11:01;;;;;;;2.42;0.38;;;8.80;96.70;;;;;;5067257;28;20760;-73
2021/01/23 03:13:29;;;;;;;2.72;0.47;;;8.90;96.70;;;;;;5072095;28;20040;-72
2021/01/23 03:15:56;;;;;;;5.82;0.60;;;8.80;96.70;;;;;;5072588;28;20525;-73
2021/01/23 03:18:23;;;;;;;3.97;0.30;;;8.80;96.70;;;;;;5071512;28;20049;-73
2021/01/23 03:20:51;;;;;;;3.55;0.65;;;8.80;96.70;;;;;;5068912;28;20051;-72
2021/01/23 03:23:19;;;;;;;4.63;0.63;;;8.80;96.70;;;;;;5070259;28;20043;-73
2021/01/23 03:25:46;;;;;;;4.13;0.60;;;8.80;96.70;;;;;;5077525;28;20521;-73
2021/01/23 03:28:13;;;;;;;4.13;0.50;;;8.80;96.70;;;;;;5066313;28;20044;-72
2021/01/23 03:30:42;;;;;;;3.83;0.45;;;8.80;96.70;;;;;;5071197;28;20044;-72
2021/01/23 03:33:09;;;;;;;2.55;0.45;;;8.70;96.70;;;;;;5068248;28;20041;-72
2021/01/23 03:35:37;;;;;;;4.07;0.60;;;8.70;96.70;;;;;;5066938;28;20040;-72
2021/01/23 03:38:05;;;;;;;4.88;0.60;;;8.70;96.70;;;;;;5073432;28;20043;-73
2021/01/23 03:40:32;;;;;;;2.53;0.50;;;8.70;96.70;;;;;;5070371;28;20089;-73
2021/01/23 03:42:59;;;;;;;6.55;1.00;;;8.70;96.70;;;;;;5069494;28;20035;-72
2021/01/23 03:45:27;;;;;;;12.88;1.27;;;8.80;96.70;;;;;;5070493;28;21029;-72
2021/01/23 03:47:54;;;;;;;5.97;1.20;;;8.80;96.70;;;;;;5077038;28;20077;-72
2021/01/23 03:50:21;;;;;;;10.05;1.48;;;8.80;96.70;;;;;;5068312;28;20036;-72
2021/01/23 03:52:48;;;;;;;6.07;1.10;;;8.80;96.70;;;;;;5067255;28;20048;-73
2021/01/23 03:55:16;;;;;;;10.88;2.42;;;8.90;96.70;;;;;;5053308;28;20058;-72
2021/01/23 03:57:43;;;;;;;6.07;1.55;;;8.90;96.70;;;;;;5073447;28;20776;-72
2021/01/23 04:00:12;;;;;;;8.27;1.70;;;8.90;96.70;;;;;;5070112;28;20559;-72
2021/01/23 04:02:40;;;;;;;8.63;1.52;;;8.90;96.70;;;;;;5067730;28;20040;-72
2021/01/23 04:05:08;;;;;;;8.10;1.45;;;8.90;96.70;;;;;;5068383;28;20055;-72
2021/01/23 04:07:35;;;;;;;10.68;2.10;;;8.80;96.70;;;;;;5069080;28;20040;-72
2021/01/23 04:10:04;;;;;;;13.73;2.30;;;8.90;96.70;;;;;;5073377;28;20116;-72
2021/01/23 04:12:33;;;;;;;13.00;2.15;;;8.90;96.70;;;;;;5072471;28;20087;-73
2021/01/23 04:15:00;;;;;;;14.07;2.35;;;8.90;96.70;;;;;;5070822;28;20044;-72
2021/01/23 04:17:28;;;;;;;14.77;2.65;;;8.90;96.70;;;;;;5068491;28;20037;-72
2021/01/23 04:19:56;;;;;;;13.63;2.45;;;8.80;96.70;;;;;;5067351;28;20043;-72
2021/01/23 04:22:23;;;;;;;13.02;2.53;;;8.80;96.70;;;;;;5078815;28;20071;-72
2021/01/23 04:24:50;;;;;;;15.25;2.60;;;8.80;96.70;;;;;;5071822;28;20645;-72
2021/01/23 04:27:18;;;;;;;15.02;3.00;;;8.80;96.70;;;;;;5068395;28;20456;-72
2021/01/23 04:29:46;;;;;;;17.77;2.35;;;8.90;96.70;;;;;;5068741;28;20047;-72
2021/01/23 04:32:13;;;;;;;13.82;2.35;;;8.90;96.70;;;;;;5072098;28;20220;-72
2021/01/23 04:34:41;;;;;;;14.05;2.47;;;8.80;96.70;;;;;;5069822;28;20036;-72
2021/01/23 04:37:08;;;;;;;11.48;2.50;;;8.80;96.70;;;;;;5071939;28;20537;-72
2021/01/23 04:39:36;;;;;;;13.50;2.88;;;8.70;96.70;;;;;;5068856;28;20071;-72
2021/01/23 04:42:05;;;;;;;15.27;2.30;;;8.70;96.70;;;;;;5069544;28;20502;-72
2021/01/23 04:44:32;;;;;;;9.85;1.85;;;8.70;96.70;;;;;;5063819;28;20075;-72
2021/01/23 04:47:02;;;;;;;11.90;2.00;;;8.70;96.70;;;;;;5067857;28;20039;-72
2021/01/23 04:49:31;;;;;;;12.18;2.10;;;8.60;96.70;;;;;;5071721;28;20050;-71
2021/01/23 04:51:58;;;;;;;11.10;2.33;;;8.60;96.70;;;;;;5067319;28;20044;-72
2021/01/23 04:54:25;;;;;;;7.05;1.60;;;8.70;96.70;;;;;;5066100;28;20524;-72
2021/01/23 04:56:52;;;;;;;12.38;2.13;;;8.60;96.70;;;;;;5052122;28;20040;-72
2021/01/23 04:59:20;;;;;;;8.23;1.80;;;8.60;96.70;;;;;;5076600;28;20153;-72
2021/01/23 05:02:22;;;;;;;9.30;2.10;;;8.50;96.70;;;;;;5074434;28;20037;-72
2021/01/23 05:04:55;;;;;;;11.95;1.50;;;8.50;96.70;;;;;;5080725;28;20063;-72
2021/01/23 05:07:26;;;;;;;12.20;1.80;;;8.50;96.70;;;;;;5073634;28;20050;-72
2021/01/23 05:09:54;;;;;;;12.75;1.95;;;8.40;96.70;;;;;;5070887;28;20044;-72
2021/01/23 05:12:33;;;;;;;8.90;2.00;;;8.50;96.70;;;;;;5071965;28;20063;-72
2021/01/23 05:15:00;;;;;;;13.63;2.22;;;8.50;96.70;;;;;;5079414;28;20048;-72
2021/01/23 05:17:27;;;;;;;15.88;2.50;;;8.50;96.70;;;;;;5078262;28;20042;-72
2021/01/23 05:19:56;;;;;;;13.52;2.10;;;8.50;96.70;;;;;;5072666;28;20404;-72
2021/01/23 05:22:23;;;;;;;9.50;1.48;;;8.50;96.70;;;;;;5076851;28;20051;-72
2021/01/23 05:24:52;;;;;;;13.52;2.17;;;8.50;96.70;;;;;;5076888;28;20197;-72
2021/01/23 05:27:19;;;;;;;8.15;1.70;;;8.50;96.70;;;;;;5067950;28;20089;-72
2021/01/23 05:29:55;;;;;;;10.45;1.65;;;8.50;96.70;;;;;;5083084;28;20405;-72
2021/01/23 05:32:23;;;;;;;11.75;2.33;;;8.50;96.70;;;;;;5071883;28;20379;-72
2021/01/23 05:34:51;;;;;;;10.65;1.67;;;8.50;96.70;;;;;;5073939;28;20101;-72
2021/01/23 05:37:34;;;;;;;7.88;1.23;;;8.40;96.70;;;;;;5072322;28;20444;-72
2021/01/23 05:40:04;;;;;;;16.13;2.17;;;8.50;96.70;;;;;;5076275;28;20076;-72
2021/01/23 05:42:40;;;;;;;15.68;2.28;;;8.40;96.70;;;;;;5068622;28;20047;-72
2021/01/23 05:45:10;;;;;;;15.85;2.35;;;8.40;96.70;;;;;;5070980;28;20056;-72
2021/01/23 05:47:39;;;;;;;14.48;2.63;;;8.50;96.70;;;;;;5072891;28;20040;-72
2021/01/23 05:50:08;;;;;;;9.60;1.75;;;8.50;96.70;;;;;;5069377;28;20509;-72
2021/01/23 05:52:37;;;;;;;14.63;2.10;;;8.50;96.70;;;;;;5073390;28;20090;-72
2021/01/23 05:55:05;;;;;;;13.75;2.42;;;8.50;96.70;;;;;;5079210;28;20046;-72
2021/01/23 05:57:33;;;;;;;11.75;1.70;;;8.60;96.70;;;;;;5073215;28;20398;-72
2021/01/23 06:00:02;;;;;;;14.63;1.95;;;8.50;96.70;;;;;;5069831;28;20028;-72
2021/01/23 06:02:33;;;;;;;10.10;1.90;;;8.60;96.70;;;;;;5075587;28;20043;-72
2021/01/23 06:05:00;;;;;;;8.98;2.03;;;8.50;96.70;;;;;;5072362;28;20036;-72
2021/01/23 06:07:44;;;;;;;10.00;2.20;;;8.60;96.70;;;;;;5077991;28;20040;-72
2021/01/23 06:10:41;;;;;;;9.32;2.38;;;8.50;96.70;;;;;;5078045;28;20059;-72
2021/01/23 06:13:31;;;;;;;14.38;2.83;;;8.60;96.70;;;;;;5080785;28;20497;-72
2021/01/23 06:15:58;;;;;;;13.30;2.40;;;8.60;96.70;;;;;;5070463;28;20596;-71
2021/01/23 06:18:30;;;;;;;15.10;2.78;;;8.60;96.70;;;;;;5073056;28;20078;-72
2021/01/23 06:20:59;;;;;;;14.70;2.90;;;8.70;96.70;;;;;;5068560;28;20032;-72
2021/01/23 06:23:50;;;;;;;15.35;4.25;;;8.60;96.70;;;;;;5078293;28;20456;-72
2021/01/23 06:26:18;;;;;;;13.95;3.53;;;8.60;96.70;;;;;;5070469;28;20047;-72
2021/01/23 06:28:56;;;;;;;11.45;2.90;;;8.60;96.70;;;;;;5073103;28;20043;-72
2021/01/23 06:31:31;;;;;;;13.18;3.42;;;8.60;96.70;;;;;;5076900;28;20143;-72
2021/01/23 06:33:59;;;;;;;10.93;2.55;;;8.70;96.70;;;;;;5068340;28;20090;-72
2021/01/23 06:36:26;;;;;;;11.55;3.13;;;8.70;96.70;;;;;;5074597;28;20039;-73
2021/01/23 06:39:05;;;;;;;13.57;2.03;;;8.70;96.70;;;;;;5056602;28;20066;-72
2021/01/23 06:41:34;;;;;;;12.73;2.35;;;8.80;96.70;;;;;;5067591;28;20111;-72
2021/01/23 06:44:18;;;;;;;15.15;3.50;;;8.80;96.70;;;;;;5069827;28;20394;-72
2021/01/23 06:47:00;;;;;;;9.30;2.03;;;8.90;96.70;;;;;;5074425;28;20637;-72
2021/01/23 06:49:28;;;;;;;17.20;3.03;;;8.90;96.70;;;;;;5072683;28;20063;-72
2021/01/23 06:52:05;;;;;;;18.67;2.60;;;8.90;96.70;;;;;;5069592;28;20162;-73
2021/01/23 06:54:34;;;;;;;13.95;2.95;;;8.80;96.70;;;;;;5072652;28;20626;-72
2021/01/23 06:57:03;;;;;;;13.60;2.42;;;8.70;96.70;;;;;;5072034;28;20091;-72
2021/01/23 06:59:32;;;;;;;12.57;1.95;;;8.60;96.70;;;;;;5072605;28;20054;-72
2021/01/23 07:02:01;;;;;;;8.20;1.40;;;8.60;96.70;;;;;;5069409;28;20121;-73
2021/01/23 07:04:31;;;;;;;6.53;0.88;;;8.60;96.70;;;;;;5069156;28;20051;-72
2021/01/23 07:06:59;;;;;;;7.28;1.50;;;8.50;96.70;;;;;;5071778;28;20047;-72
2021/01/23 07:09:44;;;;;;;5.70;0.80;;;8.50;96.70;;;;;;5074736;28;20048;-73
2021/01/23 07:12:12;;;;;;;3.75;0.50;;;8.50;96.70;;;;;;5069863;28;20067;-73
2021/01/23 07:14:44;;;;;;;2.55;0.40;;;8.50;96.70;;;;;;5069372;28;20036;-74
2021/01/23 07:17:13;;;;;;;2.33;0.30;;;8.50;96.70;;;;;;5070217;28;20245;-74
2021/01/23 07:19:42;;;;;;;2.00;0.60;;;8.50;96.70;;;;;;5073667;28;20133;-73
2021/01/23 07:22:09;;;;;;;2.35;0.45;;;8.50;96.70;;;;;;5070703;28;20118;-73
2021/01/23 07:24:37;;;;;;;2.72;0.50;;;8.50;96.70;;;;;;5072598;28;20477;-73
2021/01/23 07:27:06;;;;;;;1.55;0.28;;;8.40;96.70;;;;;;5058496;28;20081;-74
2021/01/23 07:29:34;;;;;;;2.55;0.50;;;8.40;96.70;;;;;;5069172;28;20044;-73
2021/01/23 07:32:01;;;;;;;2.42;0.40;;;8.50;96.70;;;;;;5066664;28;20600;-74
2021/01/23 07:34:29;;;;;;;2.88;0.40;;;8.50;96.70;;;;;;5071854;28;20040;-73
2021/01/23 07:36:56;;;;;;;1.95;0.40;;;8.50;96.70;;;;;;5066586;28;20040;-73
2021/01/23 07:39:26;;;;;;;1.73;0.40;;;8.50;96.70;;;;;;5068176;28;20041;-73
2021/01/23 07:41:55;;;;;;;16.67;9.30;;;8.50;96.70;;;;;;5054801;28;20426;-72
2021/01/23 07:44:26;;;;;;;1.60;0.60;;;8.60;96.70;;;;;;5070643;28;20044;-73
2021/01/23 07:46:55;;;;;;;4.40;0.38;;;8.60;96.70;;;;;;5069762;28;20089;-74
2021/01/23 07:49:25;;;;;;;3.15;0.40;;;8.60;96.70;;;;;;5066215;28;20414;-74
2021/01/23 07:52:05;;;;;;;4.95;0.60;;;8.60;96.70;;;;;;5068219;28;20078;-74
2021/01/23 07:54:33;;;;;;;4.25;0.40;;;8.60;96.70;;;;;;5068030;28;20386;-73
2021/01/23 07:57:00;;;;;;;3.60;0.70;;;8.60;96.70;;;;;;5071870;28;20029;-73
2021/01/23 07:59:45;;;;;;;4.95;0.65;;;8.60;96.70;;;;;;5064469;28;20125;-73
2021/01/23 08:02:13;;;;;;;4.57;0.90;;;8.60;96.70;;;;;;5068990;28;20477;-73
2021/01/23 08:04:41;;;;;;;6.20;1.52;;;8.60;96.70;;;;;;5075317;28;20045;-73
2021/01/23 08:07:25;;;;;;;6.55;1.52;;;8.60;96.70;;;;;;5065618;28;20044;-74
2021/01/23 08:10:09;;;;;;;7.68;1.20;;;8.60;96.70;;;;;;5066055;28;20072;-73
2021/01/23 08:12:36;;;;;;;9.48;1.40;;;8.60;96.70;;;;;;5071492;28;20048;-73
2021/01/23 08:15:07;;;;;;;8.35;1.50;;;8.60;96.70;;;;;;5071534;28;20111;-73
2021/01/23 08:17:39;;;;;;;6.53;1.67;;;8.60;96.70;;;;;;5069887;28;20051;-73
2021/01/23 08:20:09;;;;;;;10.75;1.70;;;8.70;96.70;;;;;;5067246;28;20457;-73
2021/01/23 08:22:58;;;;;;;11.20;2.20;;;8.70;96.70;;;;;;5072965;28;20413;-73
2021/01/23 08:25:27;;;;;;;6.43;1.83;;;8.70;96.70;;;;;;5075145;28;20056;-73
2021/01/23 08:27:55;;;;;;;9.63;2.05;;;8.70;96.70;;;;;;5049992;28;20032;-74
2021/01/23 08:30:25;;;;;;;9.02;1.38;;;8.70;96.70;;;;;;5074527;28;20115;-73
2021/01/23 08:32:54;;;;;;;7.30;1.40;;;8.70;96.70;;;;;;5072483;28;20040;-73
2021/01/23 08:35:22;;;;;;;9.80;1.55;;;8.80;96.70;;;;;;5075718;28;20052;-73
2021/01/23 08:37:51;;;;;;;10.63;2.13;;;8.80;96.70;;;;;;5067895;28;20698;-73
2021/01/23 08:40:20;;;;;;;9.40;1.27;;;8.80;96.70;;;;;;5065035;28;20044;-74
2021/01/23 08:42:48;;;;;;;6.30;1.23;;;8.80;96.70;;;;;;5066102;28;20043;-73
2021/01/23 08:45:17;;;;;;;6.78;1.27;;;8.80;96.70;;;;;;5074055;28;20922;-75
2021/01/23 08:47:46;;;;;;;7.47;1.00;;;8.70;96.70;;;;;;5069535;28;20063;-73
2021/01/23 08:50:14;;;;;;;4.43;0.88;;;8.70;96.70;;;;;;5069886;28;20040;-75
2021/01/23 08:52:42;;;;;;;3.30;0.82;;;8.70;96.70;;;;;;5068345;28;20044;-74
2021/01/23 08:55:10;;;;;;;16.08;7.25;;;8.70;96.70;;;;;;5066500;28;20047;-73
2021/01/23 08:57:38;;;;;;;13.52;8.60;;;8.90;96.70;;;;;;5071575;28;20051;-74
2021/01/23 09:00:07;;;;;;;4.70;1.30;;;9.00;96.70;;;;;;5069266;28;20123;-75
2021/01/23 09:02:35;;;;;;;3.85;1.13;;;8.90;96.70;;;;;;5067544;28;20048;-73
2021/01/23 09:05:05;;;;;;;3.65;0.98;;;8.90;96.70;;;;;;5075492;28;20068;-73
2021/01/23 09:07:33;;;;;;;8.63;1.30;;;8.90;96.70;;;;;;5063076;28;20144;-74
2021/01/23 09:10:00;;;;;;;8.68;1.35;;;8.90;96.70;;;;;;5069941;28;20086;-75
2021/01/23 09:12:28;;;;;;;5.25;1.40;;;8.90;96.70;;;;;;5063171;28;20048;-74
2021/01/23 09:14:55;;;;;;;9.05;1.35;;;9.00;96.70;;;;;;5069886;28;20059;-73
2021/01/23 09:17:23;;;;;;;6.45;1.20;;;9.00;96.70;;;;;;5066210;28;20037;-74
2021/01/23 09:19:50;;;;;;;5.85;1.25;;;9.00;96.70;;;;;;5071149;28;20041;-73
2021/01/23 09:22:18;;;;;;;8.73;1.52;;;9.00;96.70;;;;;;5073527;28;20040;-74
2021/01/23 09:24:46;;;;;;;7.97;1.73;;;9.00;96.70;;;;;;5068085;28;20043;-74
2021/01/23 09:27:14;;;;;;;6.28;1.38;;;9.10;96.70;;;;;;5070704;28;20273;-74
2021/01/23 09:29:42;;;;;;;7.32;1.10;;;9.10;96.70;;;;;;5052997;28;20387;-73
2021/01/23 09:32:09;;;;;;;7.72;1.63;;;9.10;96.70;;;;;;5072921;28;20039;-73
2021/01/23 09:34:36;;;;;;;6.97;1.00;;;9.10;96.70;;;;;;5069061;28;20040;-73
2021/01/23 09:37:04;;;;;;;7.40;1.27;;;9.20;96.70;;;;;;5064381;28;20040;-73
2021/01/23 09:39:33;;;;;;;7.40;1.58;;;9.30;96.70;;;;;;5068154;28;20043;-73
2021/01/23 09:42:00;;;;;;;9.40;1.42;;;9.30;96.70;;;;;;5062637;28;20041;-73
2021/01/23 09:44:27;;;;;;;10.65;2.10;;;9.30;96.70;;;;;;5073223;28;20517;-73
2021/01/23 09:46:55;;;;;;;5.95;1.50;;;9.40;96.70;;;;;;5069568;28;20513;-73
2021/01/23 09:49:23;;;;;;;6.97;1.48;;;9.40;96.70;;;;;;5070840;28;20789;-75
2021/01/23 09:51:50;;;;;;;6.38;1.30;;;9.50;96.70;;;;;;5073264;28;20067;-74
2021/01/23 09:54:18;;;;;;;8.60;1.17;;;9.50;96.70;;;;;;5062490;28;20044;-73
2021/01/23 09:57:01;;;;;;;4.38;0.82;;;9.50;96.70;;;;;;5076070;28;20048;-73
2021/01/23 09:59:30;;;;;;;10.13;3.45;;;9.60;96.70;;;;;;5079786;28;20068;-74
2021/01/23 10:01:58;;;;;;;9.68;1.73;;;9.60;96.70;;;;;;5074043;28;20036;-74
2021/01/23 10:04:26;;;;;;;5.03;1.10;;;9.60;96.70;;;;;;5070444;28;20051;-74
2021/01/23 10:06:53;;;;;;;5.65;0.90;;;9.70;96.70;;;;;;5069941;28;20025;-74
2021/01/23 10:09:21;;;;;;;5.05;1.00;;;9.70;96.70;;;;;;5067784;28;20040;-73
2021/01/23 10:11:48;;;;;;;10.82;1.08;;;9.70;96.70;;;;;;5075373;28;20048;-74
2021/01/23 10:14:17;;;;;;;5.35;0.93;;;9.90;96.70;;;;;;5072489;28;20040;-73
2021/01/23 10:16:45;;;;;;;6.75;1.00;;;9.90;96.70;;;;;;5070861;28;20033;-74
2021/01/23 10:19:13;;;;;;;3.88;0.98;;;10.00;96.70;;;;;;5068736;28;20506;-74
2021/01/23 10:21:41;;;;;;;6.78;1.08;;;10.00;96.70;;;;;;5070885;28;20445;-74
2021/01/23 10:24:10;;;;;;;7.22;0.93;;;10.00;96.70;;;;;;5075977;28;20396;-74
2021/01/23 10:26:37;;;;;;;4.28;0.95;;;10.00;96.70;;;;;;5060840;28;20039;-73
2021/01/23 10:29:04;;;;;;;7.55;1.40;;;10.10;96.70;;;;;;5072821;28;20044;-73
2021/01/23 10:31:33;;;;;;;6.53;1.10;;;10.20;96.70;;;;;;5061948;28;20041;-73
2021/01/23 10:34:00;;;;;;;7.28;1.27;;;10.20;96.70;;;;;;5072536;28;20494;-74
2021/01/23 10:36:28;;;;;;;7.50;1.70;;;10.20;96.70;;;;;;5082926;27;20506;-74
2021/01/23 10:38:55;;;;;;;8.00;1.17;;;10.30;96.70;;;;;;5066899;28;20584;-73
2021/01/23 10:41:22;;;;;;;6.18;1.30;;;10.30;96.70;;;;;;5068174;28;20047;-73
2021/01/23 10:43:50;;;;;;;7.70;1.30;;;10.40;96.70;;;;;;5074583;28;20043;-73
2021/01/23 10:46:17;;;;;;;5.80;1.38;;;10.40;96.70;;;;;;5073524;28;20660;-73
2021/01/23 10:48:45;;;;;;;5.18;0.90;;;10.50;96.70;;;;;;5066055;28;20113;-73
2021/01/23 10:51:14;;;;;;;9.60;1.75;;;10.50;96.70;;;;;;5074366;28;20122;-73
2021/01/23 10:53:41;;;;;;;6.80;1.50;;;10.50;96.70;;;;;;5065574;28;20615;-73
2021/01/23 10:56:09;;;;;;;5.90;1.10;;;10.50;96.70;;;;;;5068996;28;20051;-73
2021/01/23 10:58:36;;;;;;;6.72;1.05;;;10.50;96.70;;;;;;5075219;28;20063;-73
2021/01/23 11:01:03;;;;;;;6.97;1.10;;;10.50;96.70;;;;;;5084120;28;20036;-73
2021/01/23 11:03:31;;;;;;;7.47;1.27;;;10.50;96.70;;;;;;5067328;28;20098;-73
2021/01/23 11:05:59;;;;;;;5.43;1.30;;;10.40;96.70;;;;;;5069468;28;20028;-74
2021/01/23 11:08:27;;;;;;;6.50;1.42;;;10.40;96.70;;;;;;5070073;28;20044;-74
2021/01/23 11:10:54;;;;;;;9.95;1.13;;;10.30;96.70;;;;;;5071844;28;20036;-74
2021/01/23 11:13:23;;;;;;;5.50;1.30;;;10.20;96.70;;;;;;5074607;28;20509;-74
2021/01/23 11:15:51;;;;;;;6.72;2.03;;;10.20;96.70;;;;;;5067937;28;20032;-74
2021/01/23 11:18:18;;;;;;;20.73;10.75;;;10.10;96.70;;;;;;5072840;28;20037;-73
2021/01/23 11:20:46;;;;;;;5.25;1.77;;;10.10;96.70;;;;;;5076788;28;20040;-74
2021/01/23 11:23:14;;;;;;;5.57;0.90;;;10.10;96.70;;;;;;5070595;28;20072;-72
2021/01/23 11:25:41;;;;;;;18.17;8.50;;;10.00;96.70;;;;;;5072858;28;20119;-73
2021/01/23 11:28:08;;;;;;;10.55;4.43;;;9.90;96.70;;;;;;5073467;28;20047;-73
2021/01/23 11:30:36;;;;;;;5.78;1.52;;;9.80;96.70;;;;;;5075278;28;20032;-72
2021/01/23 11:33:03;;;;;;;6.43;1.90;;;9.80;96.70;;;;;;5081575;28;20419;-73
2021/01/23 11:35:31;;;;;;;9.00;4.50;;;9.80;96.70;;;;;;5072310;28;20036;-73
2021/01/23 11:38:01;;;;;;;15.18;7.35;;;9.80;96.70;;;;;;5072464;28;20403;-73
2021/01/23 11:40:29;;;;;;;8.80;4.32;;;9.80;96.70;;;;;;5072635;28;20029;-72
2021/01/23 11:42:56;;;;;;;6.38;3.05;;;9.70;96.70;;;;;;5058193;28;20040;-73
2021/01/23 11:45:24;;;;;;;11.10;6.60;;;9.70;96.70;;;;;;5075701;28;20071;-72
2021/01/23 11:47:51;;;;;;;12.48;7.40;;;9.70;96.70;;;;;;5072626;28;20043;-73
2021/01/23 11:50:19;;;;;;;6.35;3.08;;;9.70;96.70;;;;;;5067423;28;20090;-73
2021/01/23 11:52:46;;;;;;;9.40;4.82;;;9.80;96.70;;;;;;5068992;28;20044;-72
2021/01/23 11:55:14;;;;;;;8.05;4.60;;;9.90;96.70;;;;;;5067605;28;20533;-73
2021/01/23 11:57:42;;;;;;;9.35;4.65;;;9.90;96.70;;;;;;5066426;28;20043;-73
2021/01/23 12:00:10;;;;;;;5.43;1.73;;;10.00;96.70;;;;;;5066236;28;20082;-73
2021/01/23 12:02:39;;;;;;;4.22;1.45;;;10.10;96.70;;;;;;5067478;28;20055;-72
2021/01/23 12:05:08;;;;;;;6.80;2.28;;;10.10;96.70;;;;;;5070375;28;20032;-72
2021/01/23 12:07:35;;;;;;;6.25;2.17;;;10.20;96.70;;;;;;5069694;28;20094;-72
2021/01/23 12:10:03;;;;;;;4.95;1.63;;;10.20;96.70;;;;;;5068662;28;20553;-73
2021/01/23 12:12:31;;;;;;;7.07;2.65;;;10.30;96.70;;;;;;5065124;28;20044;-73
2021/01/23 12:15:00;;;;;;;4.97;1.83;;;10.30;96.70;;;;;;5066687;28;20032;-72
2021/01/23 12:17:27;;;;;;;7.78;1.63;;;10.40;96.70;;;;;;5069140;28;20052;-72
2021/01/23 12:19:55;;;;;;;10.38;5.07;;;10.50;96.70;;;;;;5066151;28;20060;-72
2021/01/23 12:22:22;;;;;;;10.00;6.45;;;10.60;96.70;;;;;;5060076;28;20600;-72
2021/01/23 12:24:50;;;;;;;6.18;3.17;;;10.70;96.70;;;;;;5053225;28;20262;-72
2021/01/23 12:27:17;;;;;;;11.05;4.70;;;10.80;96.70;;;;;;5065993;28;20071;-72
2021/01/23 12:29:44;;;;;;;7.07;1.88;;;10.90;96.70;;;;;;5071484;28;20686;-73
2021/01/23 12:32:13;;;;;;;6.45;1.20;;;11.10;96.70;;;;;;5072428;28;20115;-72
2021/01/23 12:34:40;;;;;;;3.03;1.00;;;11.20;96.70;;;;;;5074065;28;20040;-73
2021/01/23 12:37:08;;;;;;;5.47;1.35;;;11.20;96.70;;;;;;5066555;28;20041;-73
2021/01/23 12:39:35;;;;;;;2.92;0.60;;;11.30;96.70;;;;;;5069083;28;20067;-72
2021/01/23 12:42:04;;;;;;;9.25;1.10;;;11.30;96.70;;;;;;5070749;28;20116;-72
2021/01/23 12:44:31;;;;;;;3.42;0.60;;;11.30;96.70;;;;;;5073097;28;20401;-73
2021/01/23 12:47:00;;;;;;;2.70;0.90;;;11.40;96.70;;;;;;5070149;28;20160;-73
2021/01/23 12:49:28;;;;;;;5.07;1.30;;;11.40;96.70;;;;;;5069229;28;20036;-73
2021/01/23 12:51:55;;;;;;;4.82;1.10;;;11.60;96.70;;;;;;5066391;28;20032;-73
2021/01/23 12:54:23;;;;;;;3.75;1.40;;;11.70;96.70;;;;;;5067291;28;20589;-73
2021/01/23 12:56:51;;;;;;;12.40;5.47;;;11.80;96.70;;;;;;5070353;28;20074;-73
2021/01/23 12:59:18;;;;;;;9.25;4.20;;;11.90;96.70;;;;;;5069488;28;20457;-73
2021/01/23 13:01:46;;;;;;;5.60;2.58;;;12.10;96.70;;;;;;5072419;28;20036;-72